sensor_id;sensor_type;location;lat;lon;timestamp;temperature;humidity
49242;DHT22;35079;52.704;13.814;2022-08-11T00:01:16;18.30;81.90
49242;DHT22;35079;52.704;13.814;2022-08-11T00:03:50;18.30;82.50
49242;DHT22;35079;52.704;13.814;2022-08-11T00:06:47;18.30;82.60
49242;DHT22;35079;52.704;13.814;2022-08-11T00:09:31;18.20;82.80
49242;DHT22;35079;52.704;13.814;2022-08-11T00:11:58;18.20;83.10
49242;DHT22;35079;52.704;13.814;2022-08-11T00:14:32;18.20;83.30
49242;DHT22;35079;52.704;13.814;2022-08-11T00:17:12;18.10;83.20
49242;DHT22;35079;52.704;13.814;2022-08-11T00:19:43;18.20;84.20
49242;DHT22;35079;52.704;13.814;2022-08-11T00:22:10;18.00;84.70
49242;DHT22;35079;52.704;13.814;2022-08-11T00:24:39;18.00;84.80
49242;DHT22;35079;52.704;13.814;2022-08-11T00:27:08;18.00;85.10
49242;DHT22;35079;52.704;13.814;2022-08-11T00:29:33;18.00;85.00
49242;DHT22;35079;52.704;13.814;2022-08-11T00:32:02;18.00;85.60
49242;DHT22;35079;52.704;13.814;2022-08-11T00:34:32;18.00;85.60
49242;DHT22;35079;52.704;13.814;2022-08-11T00:37:17;18.00;86.00
49242;DHT22;35079;52.704;13.814;2022-08-11T00:39:55;18.00;86.30
49242;DHT22;35079;52.704;13.814;2022-08-11T00:48:06;17.90;86.60
49242;DHT22;35079;52.704;13.814;2022-08-11T00:50:46;17.90;86.80
49242;DHT22;35079;52.704;13.814;2022-08-11T00:53:31;17.90;86.90
49242;DHT22;35079;52.704;13.814;2022-08-11T01:12:43;17.70;88.70
49242;DHT22;35079;52.704;13.814;2022-08-11T01:18:39;17.60;90.00
49242;DHT22;35079;52.704;13.814;2022-08-11T02:21:01;17.00;92.80
49242;DHT22;35079;52.704;13.814;2022-08-11T03:45:36;16.40;95.90
49242;DHT22;35079;52.704;13.814;2022-08-11T05:14:26;17.50;95.70
49242;DHT22;35079;52.704;13.814;2022-08-11T05:17:13;17.50;96.20
49242;DHT22;35079;52.704;13.814;2022-08-11T05:19:59;17.70;95.50
49242;DHT22;35079;52.704;13.814;2022-08-11T05:22:47;17.80;95.40
49242;DHT22;35079;52.704;13.814;2022-08-11T05:25:34;18.00;95.10
49242;DHT22;35079;52.704;13.814;2022-08-11T05:28:31;18.20;94.70
49242;DHT22;35079;52.704;13.814;2022-08-11T05:31:18;18.30;94.70
49242;DHT22;35079;52.704;13.814;2022-08-11T05:34:10;18.40;94.60
49242;DHT22;35079;52.704;13.814;2022-08-11T05:37:32;18.60;94.30
49242;DHT22;35079;52.704;13.814;2022-08-11T05:40:05;18.60;94.10
49242;DHT22;35079;52.704;13.814;2022-08-11T05:42:59;18.80;93.90
49242;DHT22;35079;52.704;13.814;2022-08-11T05:45:44;19.00;93.60
49242;DHT22;35079;52.704;13.814;2022-08-11T05:48:40;19.20;93.30
49242;DHT22;35079;52.704;13.814;2022-08-11T05:51:35;19.30;92.80
49242;DHT22;35079;52.704;13.814;2022-08-11T05:54:24;19.50;92.60
49242;DHT22;35079;52.704;13.814;2022-08-11T05:57:21;19.60;92.40
49242;DHT22;35079;52.704;13.814;2022-08-11T05:59:47;19.80;91.90
49242;DHT22;35079;52.704;13.814;2022-08-11T06:02:14;19.80;91.70
49242;DHT22;35079;52.704;13.814;2022-08-11T06:04:41;20.10;91.90
49242;DHT22;35079;52.704;13.814;2022-08-11T06:07:10;20.10;91.50
49242;DHT22;35079;52.704;13.814;2022-08-11T06:09:47;20.40;91.20
49242;DHT22;35079;52.704;13.814;2022-08-11T06:14:54;20.60;90.50
49242;DHT22;35079;52.704;13.814;2022-08-11T06:17:27;20.70;90.20
49242;DHT22;35079;52.704;13.814;2022-08-11T06:20:07;20.90;90.10
49242;DHT22;35079;52.704;13.814;2022-08-11T06:22:38;21.00;89.50
49242;DHT22;35079;52.704;13.814;2022-08-11T06:25:58;21.10;87.90
49242;DHT22;35079;52.704;13.814;2022-08-11T06:32:10;21.40;87.20
49242;DHT22;35079;52.704;13.814;2022-08-11T06:47:10;22.10;84.80
49242;DHT22;35079;52.704;13.814;2022-08-11T06:49:58;22.30;83.10
49242;DHT22;35079;52.704;13.814;2022-08-11T06:53:09;22.40;83.20
49242;DHT22;35079;52.704;13.814;2022-08-11T06:56:01;22.50;82.00
49242;DHT22;35079;52.704;13.814;2022-08-11T06:58:48;22.70;81.30
49242;DHT22;35079;52.704;13.814;2022-08-11T07:01:40;22.90;79.40
49242;DHT22;35079;52.704;13.814;2022-08-11T07:04:17;23.00;78.70
49242;DHT22;35079;52.704;13.814;2022-08-11T07:07:05;23.10;78.20
49242;DHT22;35079;52.704;13.814;2022-08-11T07:13:00;23.50;76.80
49242;DHT22;35079;52.704;13.814;2022-08-11T07:15:44;23.60;76.70
49242;DHT22;35079;52.704;13.814;2022-08-11T07:18:24;23.70;75.70
49242;DHT22;35079;52.704;13.814;2022-08-11T07:21:19;23.90;74.90
49242;DHT22;35079;52.704;13.814;2022-08-11T07:24:10;24.00;74.20
49242;DHT22;35079;52.704;13.814;2022-08-11T07:26:57;24.10;73.20
49242;DHT22;35079;52.704;13.814;2022-08-11T07:29:45;24.30;72.30
49242;DHT22;35079;52.704;13.814;2022-08-11T07:32:26;24.30;72.70
49242;DHT22;35079;52.704;13.814;2022-08-11T07:35:08;24.50;71.50
49242;DHT22;35079;52.704;13.814;2022-08-11T07:37:40;24.60;71.00
49242;DHT22;35079;52.704;13.814;2022-08-11T07:40:08;24.80;70.80
49242;DHT22;35079;52.704;13.814;2022-08-11T07:42:36;25.00;69.60
49242;DHT22;35079;52.704;13.814;2022-08-11T07:45:04;25.30;69.40
49242;DHT22;35079;52.704;13.814;2022-08-11T07:47:51;25.40;68.30
49242;DHT22;35079;52.704;13.814;2022-08-11T07:50:40;25.70;67.60
49242;DHT22;35079;52.704;13.814;2022-08-11T07:53:26;25.60;68.10
49242;DHT22;35079;52.704;13.814;2022-08-11T07:55:54;25.50;66.00
49242;DHT22;35079;52.704;13.814;2022-08-11T07:58:22;25.60;66.10
49242;DHT22;35079;52.704;13.814;2022-08-11T08:01:07;25.60;65.60
49242;DHT22;35079;52.704;13.814;2022-08-11T08:03:51;25.80;64.90
49242;DHT22;35079;52.704;13.814;2022-08-11T08:06:37;25.90;64.00
49242;DHT22;35079;52.704;13.814;2022-08-11T08:09:22;25.90;64.10
49242;DHT22;35079;52.704;13.814;2022-08-11T08:12:08;26.10;64.30
49242;DHT22;35079;52.704;13.814;2022-08-11T08:14:54;26.20;63.50
49242;DHT22;35079;52.704;13.814;2022-08-11T08:17:43;26.30;63.20
49242;DHT22;35079;52.704;13.814;2022-08-11T08:20:24;26.50;62.40
49242;DHT22;35079;52.704;13.814;2022-08-11T08:22:52;26.80;61.50
49242;DHT22;35079;52.704;13.814;2022-08-11T08:25:34;26.80;60.80
49242;DHT22;35079;52.704;13.814;2022-08-11T08:28:09;27.00;61.20
49242;DHT22;35079;52.704;13.814;2022-08-11T08:30:35;27.10;61.60
49242;DHT22;35079;52.704;13.814;2022-08-11T08:33:20;27.20;60.10
49242;DHT22;35079;52.704;13.814;2022-08-11T08:35:49;27.30;59.30
49242;DHT22;35079;52.704;13.814;2022-08-11T08:38:16;27.40;59.10
49242;DHT22;35079;52.704;13.814;2022-08-11T08:40:42;27.40;57.90
49242;DHT22;35079;52.704;13.814;2022-08-11T08:43:14;27.30;58.70
49242;DHT22;35079;52.704;13.814;2022-08-11T08:45:42;27.40;58.10
49242;DHT22;35079;52.704;13.814;2022-08-11T08:48:12;27.70;56.80
49242;DHT22;35079;52.704;13.814;2022-08-11T08:50:49;27.80;57.00
49242;DHT22;35079;52.704;13.814;2022-08-11T08:53:39;28.10;57.80
49242;DHT22;35079;52.704;13.814;2022-08-11T08:56:06;28.20;57.10
49242;DHT22;35079;52.704;13.814;2022-08-11T08:58:34;28.40;57.70
49242;DHT22;35079;52.704;13.814;2022-08-11T09:01:01;28.70;56.90
49242;DHT22;35079;52.704;13.814;2022-08-11T09:03:27;28.90;56.00
49242;DHT22;35079;52.704;13.814;2022-08-11T09:05:54;28.70;53.10
49242;DHT22;35079;52.704;13.814;2022-08-11T09:08:21;28.30;53.50
49242;DHT22;35079;52.704;13.814;2022-08-11T09:10:48;28.00;55.50
49242;DHT22;35079;52.704;13.814;2022-08-11T09:13:34;28.40;55.30
49242;DHT22;35079;52.704;13.814;2022-08-11T09:16:05;29.00;54.40
49242;DHT22;35079;52.704;13.814;2022-08-11T09:18:31;29.10;53.30
49242;DHT22;35079;52.704;13.814;2022-08-11T09:20:58;29.70;52.90
49242;DHT22;35079;52.704;13.814;2022-08-11T09:23:24;29.90;51.10
49242;DHT22;35079;52.704;13.814;2022-08-11T09:26:09;30.60;51.60
49242;DHT22;35079;52.704;13.814;2022-08-11T09:28:54;31.10;50.00
49242;DHT22;35079;52.704;13.814;2022-08-11T09:31:20;31.30;49.00
49242;DHT22;35079;52.704;13.814;2022-08-11T09:33:50;32.00;48.70
49242;DHT22;35079;52.704;13.814;2022-08-11T09:36:17;32.70;47.60
49242;DHT22;35079;52.704;13.814;2022-08-11T09:39:04;32.90;45.60
49242;DHT22;35079;52.704;13.814;2022-08-11T09:41:49;33.20;46.70
49242;DHT22;35079;52.704;13.814;2022-08-11T09:44:15;34.30;45.60
49242;DHT22;35079;52.704;13.814;2022-08-11T09:47:00;34.10;43.90
49242;DHT22;35079;52.704;13.814;2022-08-11T09:49:27;31.60;45.50
49242;DHT22;35079;52.704;13.814;2022-08-11T09:51:54;31.60;46.40
49242;DHT22;35079;52.704;13.814;2022-08-11T09:54:22;31.40;45.70
49242;DHT22;35079;52.704;13.814;2022-08-11T09:56:52;31.20;47.00
49242;DHT22;35079;52.704;13.814;2022-08-11T09:59:36;32.00;46.60
49242;DHT22;35079;52.704;13.814;2022-08-11T10:02:03;33.10;45.30
49242;DHT22;35079;52.704;13.814;2022-08-11T10:04:43;34.20;44.10
49242;DHT22;35079;52.704;13.814;2022-08-11T10:07:13;33.80;42.90
49242;DHT22;35079;52.704;13.814;2022-08-11T10:12:19;33.80;42.00
49242;DHT22;35079;52.704;13.814;2022-08-11T10:14:51;34.60;42.00
49242;DHT22;35079;52.704;13.814;2022-08-11T10:17:40;35.00;41.40
49242;DHT22;35079;52.704;13.814;2022-08-11T10:20:31;34.60;41.50
49242;DHT22;35079;52.704;13.814;2022-08-11T10:22:58;35.80;40.90
49242;DHT22;35079;52.704;13.814;2022-08-11T10:25:43;36.30;40.40
49242;DHT22;35079;52.704;13.814;2022-08-11T10:28:28;36.70;39.90
49242;DHT22;35079;52.704;13.814;2022-08-11T10:30:54;36.00;37.80
49242;DHT22;35079;52.704;13.814;2022-08-11T10:33:40;34.10;38.80
49242;DHT22;35079;52.704;13.814;2022-08-11T10:36:28;34.90;40.50
49242;DHT22;35079;52.704;13.814;2022-08-11T10:38:56;35.80;39.80
49242;DHT22;35079;52.704;13.814;2022-08-11T10:41:23;36.90;37.90
49242;DHT22;35079;52.704;13.814;2022-08-11T10:44:08;37.40;37.70
49242;DHT22;35079;52.704;13.814;2022-08-11T10:46:35;37.10;37.60
49242;DHT22;35079;52.704;13.814;2022-08-11T10:49:22;37.70;36.60
49242;DHT22;35079;52.704;13.814;2022-08-11T10:51:48;37.20;37.20
49242;DHT22;35079;52.704;13.814;2022-08-11T10:54:33;36.20;36.20
49242;DHT22;35079;52.704;13.814;2022-08-11T10:57:19;37.30;37.00
49242;DHT22;35079;52.704;13.814;2022-08-11T11:00:05;36.20;37.20
49242;DHT22;35079;52.704;13.814;2022-08-11T11:02:31;36.80;36.30
49242;DHT22;35079;52.704;13.814;2022-08-11T11:08:14;35.60;36.90
49242;DHT22;35079;52.704;13.814;2022-08-11T11:11:01;36.10;36.50
49242;DHT22;35079;52.704;13.814;2022-08-11T11:13:29;36.10;36.50
49242;DHT22;35079;52.704;13.814;2022-08-11T11:16:14;35.10;35.60
49242;DHT22;35079;52.704;13.814;2022-08-11T11:19:10;36.10;37.10
49242;DHT22;35079;52.704;13.814;2022-08-11T11:21:37;37.00;35.60
49242;DHT22;35079;52.704;13.814;2022-08-11T11:24:31;37.20;34.70
49242;DHT22;35079;52.704;13.814;2022-08-11T11:27:13;36.60;36.10
49242;DHT22;35079;52.704;13.814;2022-08-11T11:35:54;36.70;36.30
49242;DHT22;35079;52.704;13.814;2022-08-11T11:38:22;37.10;34.50
49242;DHT22;35079;52.704;13.814;2022-08-11T11:40:48;36.80;35.10
49242;DHT22;35079;52.704;13.814;2022-08-11T11:43:35;36.30;35.30
49242;DHT22;35079;52.704;13.814;2022-08-11T11:46:02;36.40;33.90
49242;DHT22;35079;52.704;13.814;2022-08-11T11:48:30;36.20;34.50
49242;DHT22;35079;52.704;13.814;2022-08-11T11:50:57;36.60;33.70
49242;DHT22;35079;52.704;13.814;2022-08-11T11:53:24;36.70;33.60
49242;DHT22;35079;52.704;13.814;2022-08-11T11:55:51;36.90;34.70
49242;DHT22;35079;52.704;13.814;2022-08-11T11:58:17;36.70;34.10
49242;DHT22;35079;52.704;13.814;2022-08-11T12:01:02;37.30;33.60
49242;DHT22;35079;52.704;13.814;2022-08-11T12:03:42;36.30;33.70
49242;DHT22;35079;52.704;13.814;2022-08-11T12:06:12;36.50;35.10
49242;DHT22;35079;52.704;13.814;2022-08-11T12:08:39;36.00;33.60
49242;DHT22;35079;52.704;13.814;2022-08-11T12:11:08;37.20;32.80
49242;DHT22;35079;52.704;13.814;2022-08-11T12:13:53;37.30;32.70
49242;DHT22;35079;52.704;13.814;2022-08-11T12:16:21;38.70;33.00
49242;DHT22;35079;52.704;13.814;2022-08-11T12:18:50;39.10;31.80
49242;DHT22;35079;52.704;13.814;2022-08-11T12:21:16;38.10;31.80
49242;DHT22;35079;52.704;13.814;2022-08-11T12:23:44;38.00;32.30
49242;DHT22;35079;52.704;13.814;2022-08-11T12:26:29;38.70;31.70
49242;DHT22;35079;52.704;13.814;2022-08-11T12:29:14;37.30;31.40
49242;DHT22;35079;52.704;13.814;2022-08-11T12:31:41;36.70;32.40
49242;DHT22;35079;52.704;13.814;2022-08-11T12:34:09;36.40;33.30
49242;DHT22;35079;52.704;13.814;2022-08-11T12:36:41;36.10;32.70
49242;DHT22;35079;52.704;13.814;2022-08-11T12:39:12;36.10;32.40
49242;DHT22;35079;52.704;13.814;2022-08-11T12:41:42;35.50;32.50
49242;DHT22;35079;52.704;13.814;2022-08-11T12:44:27;34.90;33.10
49242;DHT22;35079;52.704;13.814;2022-08-11T12:47:19;34.80;32.90
49242;DHT22;35079;52.704;13.814;2022-08-11T12:49:49;34.40;34.40
49242;DHT22;35079;52.704;13.814;2022-08-11T12:52:47;32.90;35.20
49242;DHT22;35079;52.704;13.814;2022-08-11T12:55:16;32.30;36.50
49242;DHT22;35079;52.704;13.814;2022-08-11T12:58:06;32.10;36.30
49242;DHT22;35079;52.704;13.814;2022-08-11T13:00:45;31.90;35.90
49242;DHT22;35079;52.704;13.814;2022-08-11T13:03:31;32.20;37.50
49242;DHT22;35079;52.704;13.814;2022-08-11T13:06:18;32.90;37.00
49242;DHT22;35079;52.704;13.814;2022-08-11T13:08:47;33.20;34.10
49242;DHT22;35079;52.704;13.814;2022-08-11T13:11:15;33.70;34.70
49242;DHT22;35079;52.704;13.814;2022-08-11T13:14:00;34.10;34.60
49242;DHT22;35079;52.704;13.814;2022-08-11T13:16:31;34.40;33.70
49242;DHT22;35079;52.704;13.814;2022-08-11T13:19:19;34.60;34.00
49242;DHT22;35079;52.704;13.814;2022-08-11T13:21:46;34.30;34.00
49242;DHT22;35079;52.704;13.814;2022-08-11T13:24:13;34.20;34.20
49242;DHT22;35079;52.704;13.814;2022-08-11T13:26:41;34.70;34.20
49242;DHT22;35079;52.704;13.814;2022-08-11T13:29:08;35.50;33.50
49242;DHT22;35079;52.704;13.814;2022-08-11T13:31:34;35.20;33.40
49242;DHT22;35079;52.704;13.814;2022-08-11T13:34:01;35.40;32.90
49242;DHT22;35079;52.704;13.814;2022-08-11T13:36:27;35.40;33.30
49242;DHT22;35079;52.704;13.814;2022-08-11T13:38:55;35.10;33.10
49242;DHT22;35079;52.704;13.814;2022-08-11T13:41:24;35.00;33.60
49242;DHT22;35079;52.704;13.814;2022-08-11T13:44:04;33.60;35.10
49242;DHT22;35079;52.704;13.814;2022-08-11T13:46:31;33.10;35.40
49242;DHT22;35079;52.704;13.814;2022-08-11T13:48:58;32.10;36.30
49242;DHT22;35079;52.704;13.814;2022-08-11T13:51:24;32.00;36.60
49242;DHT22;35079;52.704;13.814;2022-08-11T13:54:05;32.10;36.70
49242;DHT22;35079;52.704;13.814;2022-08-11T13:56:33;31.90;36.30
49242;DHT22;35079;52.704;13.814;2022-08-11T13:59:01;32.00;36.40
49242;DHT22;35079;52.704;13.814;2022-08-11T14:01:30;31.90;36.20
49242;DHT22;35079;52.704;13.814;2022-08-11T14:04:04;31.80;36.30
49242;DHT22;35079;52.704;13.814;2022-08-11T14:06:32;31.30;37.20
49242;DHT22;35079;52.704;13.814;2022-08-11T14:09:00;31.30;37.00
49242;DHT22;35079;52.704;13.814;2022-08-11T14:11:28;31.10;37.30
49242;DHT22;35079;52.704;13.814;2022-08-11T14:14:18;30.50;37.70
49242;DHT22;35079;52.704;13.814;2022-08-11T14:16:47;30.50;37.50
49242;DHT22;35079;52.704;13.814;2022-08-11T14:19:16;30.50;38.50
49242;DHT22;35079;52.704;13.814;2022-08-11T14:21:44;30.40;38.00
49242;DHT22;35079;52.704;13.814;2022-08-11T14:24:30;30.50;37.80
49242;DHT22;35079;52.704;13.814;2022-08-11T14:26:56;30.40;38.40
49242;DHT22;35079;52.704;13.814;2022-08-11T14:29:26;30.10;38.20
49242;DHT22;35079;52.704;13.814;2022-08-11T14:31:55;29.80;38.30
49242;DHT22;35079;52.704;13.814;2022-08-11T14:34:24;29.80;38.30
49242;DHT22;35079;52.704;13.814;2022-08-11T14:36:52;29.50;38.50
49242;DHT22;35079;52.704;13.814;2022-08-11T14:39:21;29.30;38.70
49242;DHT22;35079;52.704;13.814;2022-08-11T14:41:51;29.20;39.10
49242;DHT22;35079;52.704;13.814;2022-08-11T14:44:37;29.40;40.60
49242;DHT22;35079;52.704;13.814;2022-08-11T14:47:22;29.50;39.90
49242;DHT22;35079;52.704;13.814;2022-08-11T14:49:49;30.00;39.50
49242;DHT22;35079;52.704;13.814;2022-08-11T14:52:16;30.40;39.00
49242;DHT22;35079;52.704;13.814;2022-08-11T14:54:46;30.60;38.80
49242;DHT22;35079;52.704;13.814;2022-08-11T14:57:34;30.80;37.90
49242;DHT22;35079;52.704;13.814;2022-08-11T15:00:02;30.70;38.70
49242;DHT22;35079;52.704;13.814;2022-08-11T15:02:29;30.50;37.70
49242;DHT22;35079;52.704;13.814;2022-08-11T15:05:14;30.60;37.50
49242;DHT22;35079;52.704;13.814;2022-08-11T15:07:40;30.40;37.70
49242;DHT22;35079;52.704;13.814;2022-08-11T15:10:08;29.90;37.70
49242;DHT22;35079;52.704;13.814;2022-08-11T15:12:36;29.90;37.90
49242;DHT22;35079;52.704;13.814;2022-08-11T15:15:05;29.60;38.10
49242;DHT22;35079;52.704;13.814;2022-08-11T15:17:52;29.50;38.10
49242;DHT22;35079;52.704;13.814;2022-08-11T15:20:20;29.50;38.30
49242;DHT22;35079;52.704;13.814;2022-08-11T15:23:04;29.50;38.70
49242;DHT22;35079;52.704;13.814;2022-08-11T15:26:06;29.30;38.70
49242;DHT22;35079;52.704;13.814;2022-08-11T15:28:41;29.30;39.40
49242;DHT22;35079;52.704;13.814;2022-08-11T15:31:28;29.20;38.60
49242;DHT22;35079;52.704;13.814;2022-08-11T15:34:14;29.20;39.10
49242;DHT22;35079;52.704;13.814;2022-08-11T15:37:06;28.90;38.60
49242;DHT22;35079;52.704;13.814;2022-08-11T15:39:55;28.80;39.40
49242;DHT22;35079;52.704;13.814;2022-08-11T15:45:51;28.50;39.40
49242;DHT22;35079;52.704;13.814;2022-08-11T15:48:28;28.40;39.60
49242;DHT22;35079;52.704;13.814;2022-08-11T15:51:01;28.30;38.90
49242;DHT22;35079;52.704;13.814;2022-08-11T15:53:37;28.20;39.10
49242;DHT22;35079;52.704;13.814;2022-08-11T15:56:05;28.30;39.80
49242;DHT22;35079;52.704;13.814;2022-08-11T15:58:35;28.20;38.90
49242;DHT22;35079;52.704;13.814;2022-08-11T16:01:22;28.20;39.30
49242;DHT22;35079;52.704;13.814;2022-08-11T16:04:15;28.20;39.40
49242;DHT22;35079;52.704;13.814;2022-08-11T16:11:55;28.20;40.50
49242;DHT22;35079;52.704;13.814;2022-08-11T16:14:22;28.20;39.30
49242;DHT22;35079;52.704;13.814;2022-08-11T16:17:10;28.10;39.60
49242;DHT22;35079;52.704;13.814;2022-08-11T16:19:39;28.10;40.00
49242;DHT22;35079;52.704;13.814;2022-08-11T16:22:09;28.00;39.90
49242;DHT22;35079;52.704;13.814;2022-08-11T16:24:40;28.10;39.40
49242;DHT22;35079;52.704;13.814;2022-08-11T16:27:10;28.00;40.40
49242;DHT22;35079;52.704;13.814;2022-08-11T16:29:43;27.90;40.20
49242;DHT22;35079;52.704;13.814;2022-08-11T16:32:12;28.00;39.70
49242;DHT22;35079;52.704;13.814;2022-08-11T16:34:44;28.00;39.90
49242;DHT22;35079;52.704;13.814;2022-08-11T16:37:32;27.90;40.70
49242;DHT22;35079;52.704;13.814;2022-08-11T16:40:18;27.90;39.30
49242;DHT22;35079;52.704;13.814;2022-08-11T16:42:47;27.80;40.00
49242;DHT22;35079;52.704;13.814;2022-08-11T16:45:33;27.80;40.20
49242;DHT22;35079;52.704;13.814;2022-08-11T16:48:18;27.80;40.90
49242;DHT22;35079;52.704;13.814;2022-08-11T16:50:45;27.70;41.20
49242;DHT22;35079;52.704;13.814;2022-08-11T16:53:11;27.60;41.20
49242;DHT22;35079;52.704;13.814;2022-08-11T16:55:37;27.60;41.10
49242;DHT22;35079;52.704;13.814;2022-08-11T16:58:05;27.50;40.20
49242;DHT22;35079;52.704;13.814;2022-08-11T17:00:51;27.40;40.90
49242;DHT22;35079;52.704;13.814;2022-08-11T17:03:17;27.40;41.40
49242;DHT22;35079;52.704;13.814;2022-08-11T17:06:03;27.30;41.10
49242;DHT22;35079;52.704;13.814;2022-08-11T17:08:51;27.20;41.50
49242;DHT22;35079;52.704;13.814;2022-08-11T17:11:44;27.20;41.30
49242;DHT22;35079;52.704;13.814;2022-08-11T17:14:55;27.10;41.90
49242;DHT22;35079;52.704;13.814;2022-08-11T17:17:29;27.00;42.00
49242;DHT22;35079;52.704;13.814;2022-08-11T17:20:00;27.00;41.90
49242;DHT22;35079;52.704;13.814;2022-08-11T17:22:28;26.80;42.40
49242;DHT22;35079;52.704;13.814;2022-08-11T17:25:15;26.70;42.40
49242;DHT22;35079;52.704;13.814;2022-08-11T17:27:42;26.70;42.70
49242;DHT22;35079;52.704;13.814;2022-08-11T17:30:10;26.60;42.60
49242;DHT22;35079;52.704;13.814;2022-08-11T17:32:38;26.50;43.00
49242;DHT22;35079;52.704;13.814;2022-08-11T17:35:36;26.40;42.60
49242;DHT22;35079;52.704;13.814;2022-08-11T17:40:36;26.30;43.10
49242;DHT22;35079;52.704;13.814;2022-08-11T17:43:05;26.20;43.60
49242;DHT22;35079;52.704;13.814;2022-08-11T17:45:50;26.10;44.00
49242;DHT22;35079;52.704;13.814;2022-08-11T17:48:33;26.00;44.50
49242;DHT22;35079;52.704;13.814;2022-08-11T17:51:04;25.90;43.90
49242;DHT22;35079;52.704;13.814;2022-08-11T17:53:43;25.90;44.20
49242;DHT22;35079;52.704;13.814;2022-08-11T17:56:30;25.80;44.40
49242;DHT22;35079;52.704;13.814;2022-08-11T17:59:16;25.70;44.90
49242;DHT22;35079;52.704;13.814;2022-08-11T18:02:03;25.70;45.00
49242;DHT22;35079;52.704;13.814;2022-08-11T18:04:50;25.60;45.00
49242;DHT22;35079;52.704;13.814;2022-08-11T18:07:20;25.50;45.10
49242;DHT22;35079;52.704;13.814;2022-08-11T18:10:06;25.50;45.00
49242;DHT22;35079;52.704;13.814;2022-08-11T18:12:52;25.30;45.80
49242;DHT22;35079;52.704;13.814;2022-08-11T18:15:39;25.30;46.00
49242;DHT22;35079;52.704;13.814;2022-08-11T18:18:24;25.10;45.80
49242;DHT22;35079;52.704;13.814;2022-08-11T18:21:10;25.10;46.00
49242;DHT22;35079;52.704;13.814;2022-08-11T18:23:56;24.90;45.80
49242;DHT22;35079;52.704;13.814;2022-08-11T18:26:43;24.90;46.10
49242;DHT22;35079;52.704;13.814;2022-08-11T18:29:32;24.90;46.20
49242;DHT22;35079;52.704;13.814;2022-08-11T18:32:19;24.70;46.20
49242;DHT22;35079;52.704;13.814;2022-08-11T18:35:07;24.70;46.40
49242;DHT22;35079;52.704;13.814;2022-08-11T18:37:54;24.70;46.60
49242;DHT22;35079;52.704;13.814;2022-08-11T18:40:42;24.60;47.30
49242;DHT22;35079;52.704;13.814;2022-08-11T18:43:27;24.50;47.40
49242;DHT22;35079;52.704;13.814;2022-08-11T18:46:14;24.40;47.20
49242;DHT22;35079;52.704;13.814;2022-08-11T18:49:07;24.30;47.50
49242;DHT22;35079;52.704;13.814;2022-08-11T18:51:54;24.20;48.10
49242;DHT22;35079;52.704;13.814;2022-08-11T18:54:40;24.10;48.20
49242;DHT22;35079;52.704;13.814;2022-08-11T18:57:26;24.00;48.60
49242;DHT22;35079;52.704;13.814;2022-08-11T19:00:11;24.00;48.50
49242;DHT22;35079;52.704;13.814;2022-08-11T19:02:57;23.90;49.00
49242;DHT22;35079;52.704;13.814;2022-08-11T19:05:43;23.80;49.20
49242;DHT22;35079;52.704;13.814;2022-08-11T19:08:37;23.80;49.80
49242;DHT22;35079;52.704;13.814;2022-08-11T19:11:24;23.70;49.50
49242;DHT22;35079;52.704;13.814;2022-08-11T19:14:14;23.60;49.60
49242;DHT22;35079;52.704;13.814;2022-08-11T19:17:00;23.50;49.90
49242;DHT22;35079;52.704;13.814;2022-08-11T19:19:45;23.40;50.00
49242;DHT22;35079;52.704;13.814;2022-08-11T19:22:31;23.30;50.10
49242;DHT22;35079;52.704;13.814;2022-08-11T19:25:26;23.30;51.40
49242;DHT22;35079;52.704;13.814;2022-08-11T19:28:13;23.20;50.40
49242;DHT22;35079;52.704;13.814;2022-08-11T19:30:59;23.20;50.30
49242;DHT22;35079;52.704;13.814;2022-08-11T19:33:44;23.10;51.00
49242;DHT22;35079;52.704;13.814;2022-08-11T19:36:40;23.10;52.20
49242;DHT22;35079;52.704;13.814;2022-08-11T19:39:26;23.00;51.70
49242;DHT22;35079;52.704;13.814;2022-08-11T19:45:16;22.90;52.30
49242;DHT22;35079;52.704;13.814;2022-08-11T19:48:53;22.80;52.40
49242;DHT22;35079;52.704;13.814;2022-08-11T19:51:52;22.80;52.30
49242;DHT22;35079;52.704;13.814;2022-08-11T19:58:42;22.60;53.40
49242;DHT22;35079;52.704;13.814;2022-08-11T20:18:28;22.20;55.90
49242;DHT22;35079;52.704;13.814;2022-08-11T20:31:50;22.10;59.10
49242;DHT22;35079;52.704;13.814;2022-08-11T20:34:35;21.90;60.60
49242;DHT22;35079;52.704;13.814;2022-08-11T20:40:26;21.90;61.00
49242;DHT22;35079;52.704;13.814;2022-08-11T20:43:34;21.80;61.80
49242;DHT22;35079;52.704;13.814;2022-08-11T20:46:41;21.80;61.70
49242;DHT22;35079;52.704;13.814;2022-08-11T20:49:36;21.70;62.30
49242;DHT22;35079;52.704;13.814;2022-08-11T20:52:42;21.70;63.10
49242;DHT22;35079;52.704;13.814;2022-08-11T20:55:27;21.60;63.80
49242;DHT22;35079;52.704;13.814;2022-08-11T20:58:15;21.50;63.70
49242;DHT22;35079;52.704;13.814;2022-08-11T21:01:00;21.60;64.40
49242;DHT22;35079;52.704;13.814;2022-08-11T21:03:44;21.50;64.40
49242;DHT22;35079;52.704;13.814;2022-08-11T21:06:29;21.40;65.40
49242;DHT22;35079;52.704;13.814;2022-08-11T21:09:20;21.30;65.30
49242;DHT22;35079;52.704;13.814;2022-08-11T21:12:05;21.20;65.60
49242;DHT22;35079;52.704;13.814;2022-08-11T21:14:52;21.20;66.00
49242;DHT22;35079;52.704;13.814;2022-08-11T21:17:37;21.10;66.50
49242;DHT22;35079;52.704;13.814;2022-08-11T21:20:25;21.00;66.50
49242;DHT22;35079;52.704;13.814;2022-08-11T21:23:11;21.10;66.60
49242;DHT22;35079;52.704;13.814;2022-08-11T21:26:06;21.10;67.20
49242;DHT22;35079;52.704;13.814;2022-08-11T21:28:53;21.10;67.70
49242;DHT22;35079;52.704;13.814;2022-08-11T21:31:39;21.00;68.70
49242;DHT22;35079;52.704;13.814;2022-08-11T21:34:25;21.00;68.30
49242;DHT22;35079;52.704;13.814;2022-08-11T21:37:10;20.90;68.60
49242;DHT22;35079;52.704;13.814;2022-08-11T21:39:57;20.90;69.20
49242;DHT22;35079;52.704;13.814;2022-08-11T21:42:45;20.80;69.40
49242;DHT22;35079;52.704;13.814;2022-08-11T21:45:30;20.80;69.40
49242;DHT22;35079;52.704;13.814;2022-08-11T21:48:18;20.60;69.80
49242;DHT22;35079;52.704;13.814;2022-08-11T21:51:03;20.60;70.00
49242;DHT22;35079;52.704;13.814;2022-08-11T21:53:48;20.50;70.80
49242;DHT22;35079;52.704;13.814;2022-08-11T21:56:33;20.50;70.70
49242;DHT22;35079;52.704;13.814;2022-08-11T21:59:22;20.50;70.70
49242;DHT22;35079;52.704;13.814;2022-08-11T22:02:11;20.50;70.60
49242;DHT22;35079;52.704;13.814;2022-08-11T22:04:57;20.40;71.00